Time;durP1;ratioP1;P1;durP2;ratioP2;P2;SDS_P1;SDS_P2;PMS_P1;PMS_P2;Temp;Humidity;BMP_temperature;BMP_pressure;BME280_temperature;BME280_humidity;BME280_pressure;Samples;Min_cycle;Max_cycle;Signal;HPM_P1;HPM_P2
2024/03/20 00:00:45;;;;;;;0.10;0.10;;;;;;;14.18;60.60;102020.03;5072080;28;20488;-79
2024/03/20 00:03:11;;;;;;;0.10;0.10;;;;;;;14.18;60.93;102009.38;5073991;28;20026;-78
2024/03/20 00:05:37;;;;;;;0.10;0.10;;;;;;;14.16;61.17;102008.50;5077729;28;20119;-78
2024/03/20 00:08:04;;;;;;;0.10;0.10;;;;;;;14.16;61.17;102012.97;5083545;28;20025;-80
2024/03/20 00:10:31;;;;;;;0.10;0.10;;;;;;;14.16;61.24;102016.50;5078462;28;20051;-79
2024/03/20 00:12:57;;;;;;;0.10;0.10;;;;;;;14.17;61.32;102015.59;5076122;28;20029;-79
2024/03/20 00:15:23;;;;;;;0.10;0.10;;;;;;;14.16;61.36;102016.50;5075991;28;20510;-78
2024/03/20 00:17:50;;;;;;;0.10;0.10;;;;;;;14.16;61.52;102018.31;5072917;28;20024;-79
2024/03/20 00:20:16;;;;;;;0.10;0.10;;;;;;;14.17;61.13;102018.25;5073879;28;20032;-78
2024/03/20 00:22:42;;;;;;;0.10;0.10;;;;;;;14.02;61.63;102013.19;5074449;28;20032;-79
2024/03/20 00:25:09;;;;;;;0.00;0.00;;;;;;;13.99;61.83;102019.44;5076737;28;20035;-79
2024/03/20 00:27:35;;;;;;;0.10;0.10;;;;;;;13.97;61.76;102010.59;5078189;28;20030;-77
2024/03/20 00:30:02;;;;;;;0.20;0.20;;;;;;;13.91;61.92;102016.03;5080386;28;20434;-80
2024/03/20 00:32:28;;;;;;;0.10;0.10;;;;;;;13.90;61.81;102019.56;5079492;28;20115;-79
2024/03/20 00:34:55;;;;;;;0.10;0.10;;;;;;;13.86;61.65;102007.22;5081685;28;20033;-78
2024/03/20 00:37:21;;;;;;;0.00;0.00;;;;;;;13.84;61.86;102012.53;5086733;28;20013;-77
2024/03/20 00:39:47;;;;;;;0.10;0.10;;;;;;;13.82;62.38;102005.47;5089120;28;20024;-78
2024/03/20 00:42:14;;;;;;;2.78;2.33;;;;;;;13.82;62.30;102003.72;5086586;28;20016;-80
2024/03/20 00:44:40;;;;;;;0.08;0.08;;;;;;;13.82;62.43;102005.47;5076132;28;20502;-78
2024/03/20 00:47:06;;;;;;;0.20;0.20;;;;;;;13.81;62.39;101996.63;5075915;28;20111;-80
2024/03/20 00:49:33;;;;;;;0.20;0.20;;;;;;;13.81;62.29;102001.94;5076886;28;20024;-79
2024/03/20 00:51:59;;;;;;;0.20;0.20;;;;;;;13.80;62.41;101996.66;5078339;28;20020;-79
2024/03/20 00:54:25;;;;;;;0.20;0.20;;;;;;;13.77;62.52;101999.34;5079379;28;20372;-80
2024/03/20 00:56:52;;;;;;;0.10;0.10;;;;;;;13.72;62.90;101999.41;5077728;28;20481;-79
2024/03/20 00:59:20;;;;;;;0.10;0.10;;;;;;;13.69;63.01;101992.34;5079305;28;20111;-80
2024/03/20 01:01:47;;;;;;;0.10;0.10;;;;;;;13.66;62.76;101994.19;5078675;28;20454;-80
2024/03/20 01:04:14;;;;;;;0.00;0.00;;;;;;;13.61;62.84;101986.28;5079059;28;20027;-80
2024/03/20 01:06:40;;;;;;;0.30;0.30;;;;;;;13.57;62.94;101993.41;5078538;28;20087;-80
2024/03/20 01:09:06;;;;;;;0.10;0.10;;;;;;;13.53;63.10;101989.03;5074649;28;20403;-79
2024/03/20 01:11:33;;;;;;;0.00;0.00;;;;;;;13.48;63.21;101985.53;5078354;28;20558;-80
2024/03/20 01:13:59;;;;;;;0.10;0.10;;;;;;;13.44;63.27;101978.50;5079786;28;20055;-80
2024/03/20 01:16:28;;;;;;;0.10;0.10;;;;;;;13.40;62.66;101992.78;5088396;28;20024;-79
2024/03/20 01:18:55;;;;;;;0.10;0.10;;;;;;;13.36;63.05;101991.03;5081106;28;20040;-79
2024/03/20 01:21:21;;;;;;;0.30;0.30;;;;;;;13.33;63.08;101991.06;5078572;28;20017;-80
2024/03/20 01:23:47;;;;;;;0.03;0.03;;;;;;;13.30;63.13;101991.09;5078598;28;20024;-79
2024/03/20 01:26:14;;;;;;;0.10;0.10;;;;;;;13.27;62.79;101992.91;5077531;28;20035;-79
2024/03/20 01:28:41;;;;;;;0.20;0.20;;;;;;;13.24;63.49;101984.94;5077011;28;20051;-79
2024/03/20 01:31:07;;;;;;;0.22;0.22;;;;;;;13.22;63.58;101988.50;5076982;28;20054;-79
2024/03/20 01:33:33;;;;;;;0.00;0.00;;;;;;;13.19;63.04;101984.13;5078949;28;20020;-79
2024/03/20 01:36:00;;;;;;;0.20;0.20;;;;;;;13.16;63.23;101978.84;5076837;28;20074;-79
2024/03/20 01:38:26;;;;;;;0.10;0.10;;;;;;;13.11;63.42;101978.03;5074785;28;20028;-78
2024/03/20 01:40:52;;;;;;;0.10;0.10;;;;;;;13.08;63.23;101973.63;5076397;28;20052;-77
2024/03/20 01:43:20;;;;;;;0.10;0.10;;;;;;;13.08;63.25;101967.41;5077379;28;20029;-77
2024/03/20 01:45:48;;;;;;;0.10;0.10;;;;;;;13.06;62.73;101972.75;5076644;28;20403;-77
2024/03/20 01:48:14;;;;;;;0.28;0.28;;;;;;;13.01;63.53;101969.28;5075868;28;20028;-78
2024/03/20 01:50:41;;;;;;;0.00;0.00;;;;;;;13.01;63.68;101971.94;5075686;28;20502;-79
2024/03/20 01:53:08;;;;;;;0.57;0.47;;;;;;;12.97;63.94;101974.66;5076875;28;20078;-79
2024/03/20 01:55:37;;;;;;;0.10;0.10;;;;;;;12.94;63.40;101970.25;5076625;28;20043;-78
2024/03/20 01:58:03;;;;;;;0.10;0.10;;;;;;;12.89;63.49;101964.97;5075261;28;20025;-78
2024/03/20 02:00:30;;;;;;;0.10;0.10;;;;;;;12.84;63.63;101974.78;5076374;28;20039;-77
2024/03/20 02:03:00;;;;;;;0.10;0.10;;;;;;;12.83;63.87;101975.69;5077013;28;20099;-78
2024/03/20 02:05:27;;;;;;;0.10;0.10;;;;;;;12.79;63.51;101963.31;5076553;28;20120;-77
2024/03/20 02:07:54;;;;;;;0.10;0.10;;;;;;;12.78;64.06;101966.88;5075823;28;20025;-77
2024/03/20 02:10:21;;;;;;;0.10;0.10;;;;;;;12.75;64.55;101962.47;5075888;28;20020;-79
2024/03/20 02:13:00;;;;;;;0.10;0.10;;;;;;;12.74;64.71;101949.19;5075984;28;20029;-77
2024/03/20 02:15:26;;;;;;;0.10;0.10;;;;;;;12.70;64.31;101951.00;5076023;28;20595;-78
2024/03/20 02:17:52;;;;;;;0.10;0.10;;;;;;;12.68;64.59;101941.28;5075239;28;20111;-79
2024/03/20 02:20:18;;;;;;;0.10;0.10;;;;;;;12.66;64.32;101936.00;5075439;28;20029;-79
2024/03/20 02:22:45;;;;;;;0.03;0.03;;;;;;;12.64;64.34;101942.22;5075335;28;20043;-78
2024/03/20 02:25:12;;;;;;;0.10;0.10;;;;;;;12.62;64.64;101953.75;5075797;28;20114;-78
2024/03/20 02:27:39;;;;;;;0.10;0.10;;;;;;;12.61;64.97;101949.34;5074557;28;20028;-78
2024/03/20 02:30:10;;;;;;;0.10;0.10;;;;;;;12.59;64.68;101951.13;5076180;28;20032;-80
2024/03/20 02:32:37;;;;;;;0.10;0.10;;;;;;;12.57;64.76;101955.59;5068118;28;20580;-78
2024/03/20 02:35:03;;;;;;;0.05;0.05;;;;;;;12.55;65.34;101941.41;5084335;22;20031;-79
2024/03/20 02:37:30;;;;;;;0.10;0.10;;;;;;;12.52;65.23;101946.75;5074166;28;20028;-77
2024/03/20 02:39:56;;;;;;;0.08;0.08;;;;;;;12.50;65.39;101934.38;5084447;28;20028;-78
2024/03/20 02:42:22;;;;;;;0.10;0.10;;;;;;;12.48;65.17;101936.19;5095175;28;20028;-79
2024/03/20 02:44:50;;;;;;;1.15;0.68;;;;;;;12.45;65.04;101937.09;5095681;28;20031;-78
2024/03/20 02:47:17;;;;;;;0.10;0.10;;;;;;;12.42;64.95;101932.72;5094759;28;20043;-79
2024/03/20 02:49:43;;;;;;;0.28;0.28;;;;;;;12.40;65.62;101938.91;5094540;28;20076;-79
2024/03/20 02:52:10;;;;;;;0.40;0.40;;;;;;;12.37;65.61;101938.94;5095005;28;20027;-78
2024/03/20 02:54:36;;;;;;;0.10;0.10;;;;;;;12.36;65.29;101937.19;5095769;28;20107;-77
2024/03/20 02:57:02;;;;;;;0.10;0.10;;;;;;;12.34;65.30;101939.88;5094552;28;20485;-79
2024/03/20 02:59:28;;;;;;;0.10;0.10;;;;;;;12.32;65.37;101932.81;5088278;28;20024;-79
2024/03/20 03:01:55;;;;;;;0.10;0.10;;;;;;;12.29;65.79;101942.56;5097008;28;20077;-80
2024/03/20 03:04:21;;;;;;;0.10;0.10;;;;;;;12.27;65.68;101946.13;5093676;28;20040;-80
2024/03/20 03:06:48;;;;;;;0.10;0.10;;;;;;;12.24;65.72;101946.16;5097816;28;20049;-79
2024/03/20 03:09:17;;;;;;;0.10;0.10;;;;;;;12.23;66.05;101952.38;5104248;28;20024;-79
2024/03/20 03:11:44;;;;;;;0.00;0.00;;;;;;;12.20;65.50;101947.97;5104403;28;20028;-78
2024/03/20 03:14:12;;;;;;;0.10;0.10;;;;;;;12.19;65.89;101946.19;5108580;28;20043;-77
2024/03/20 03:16:38;;;;;;;3.50;1.00;;;;;;;12.17;65.70;101940.00;5096462;28;20497;-78
2024/03/20 03:19:05;;;;;;;0.10;0.10;;;;;;;12.17;65.94;101947.97;5103742;28;20031;-78
2024/03/20 03:21:32;;;;;;;0.00;0.00;;;;;;;12.17;66.05;101944.47;5100985;28;20031;-78
2024/03/20 03:23:58;;;;;;;0.10;0.10;;;;;;;12.16;65.59;101946.22;5097193;28;20390;-80
2024/03/20 03:26:25;;;;;;;0.10;0.10;;;;;;;12.13;65.46;101941.81;5092696;28;20031;-79
2024/03/20 03:28:51;;;;;;;0.05;0.05;;;;;;;12.12;66.02;101947.16;5081215;28;20032;-80
2024/03/20 03:31:18;;;;;;;0.00;0.00;;;;;;;12.11;66.29;101942.72;5074840;28;20407;-80
2024/03/20 03:33:44;;;;;;;8.88;1.08;;;;;;;12.10;66.20;101941.84;5075177;28;20024;-79
2024/03/20 03:36:10;;;;;;;4.53;0.68;;;;;;;12.10;66.41;101951.56;5075270;28;20024;-79
2024/03/20 03:38:36;;;;;;;0.10;0.10;;;;;;;12.09;65.90;101949.84;5075023;28;20032;-80
2024/03/20 03:41:04;;;;;;;0.10;0.10;;;;;;;12.07;66.20;101949.84;5081770;28;20032;-78
2024/03/20 03:43:30;;;;;;;0.10;0.10;;;;;;;12.07;66.24;101948.97;5073037;28;20107;-79
2024/03/20 03:45:57;;;;;;;0.10;0.10;;;;;;;12.04;66.45;101941.91;5071237;28;20134;-79
2024/03/20 03:48:26;;;;;;;0.10;0.10;;;;;;;12.06;66.34;101947.19;5071926;28;20479;-78
2024/03/20 03:50:53;;;;;;;0.10;0.10;;;;;;;12.05;65.91;101942.78;5082518;28;20107;-79
2024/03/20 03:53:19;;;;;;;0.10;0.10;;;;;;;12.05;66.95;101950.75;5073170;28;20023;-79
2024/03/20 03:55:46;;;;;;;0.10;0.10;;;;;;;12.07;66.37;101946.31;5075244;28;20073;-77
2024/03/20 03:58:12;;;;;;;0.10;0.10;;;;;;;12.05;66.36;101943.66;5074722;28;20059;-80
2024/03/20 04:00:39;;;;;;;0.10;0.10;;;;;;;12.05;66.83;101943.66;5079974;28;20745;-77
2024/03/20 04:03:05;;;;;;;0.10;0.10;;;;;;;12.05;66.56;101941.00;5073138;28;20036;-78
2024/03/20 04:05:33;;;;;;;0.10;0.10;;;;;;;12.04;66.70;101941.03;5082981;28;20028;-80
2024/03/20 04:07:59;;;;;;;0.10;0.10;;;;;;;12.02;66.71;101942.81;5082232;28;20066;-78
2024/03/20 04:10:26;;;;;;;0.10;0.10;;;;;;;12.00;66.87;101931.31;5073276;28;20029;-78
2024/03/20 04:12:52;;;;;;;0.10;0.10;;;;;;;11.98;66.98;101937.50;5082230;28;20120;-79
2024/03/20 04:15:19;;;;;;;0.10;0.10;;;;;;;11.97;67.52;101934.88;5076885;28;20029;-80
2024/03/20 04:17:45;;;;;;;0.10;0.10;;;;;;;11.95;67.54;101934.88;5073328;28;20020;-80
2024/03/20 04:20:11;;;;;;;0.10;0.10;;;;;;;11.96;67.14;101947.28;5074057;28;20020;-79
2024/03/20 04:22:39;;;;;;;0.10;0.10;;;;;;;11.96;66.65;101944.63;5080173;28;20029;-80
2024/03/20 04:25:05;;;;;;;0.00;0.00;;;;;;;11.95;67.14;101948.16;5078743;28;20059;-79
2024/03/20 04:27:32;;;;;;;0.10;0.10;;;;;;;11.97;67.57;101951.72;5077327;28;20017;-79
2024/03/20 04:29:58;;;;;;;0.10;0.10;;;;;;;11.97;67.46;101961.44;5077961;28;20376;-79
2024/03/20 04:32:25;;;;;;;0.08;0.08;;;;;;;11.99;67.05;101959.66;5077523;28;20523;-79
2024/03/20 04:34:51;;;;;;;0.10;0.10;;;;;;;11.99;67.37;101954.34;5088469;28;20034;-79
2024/03/20 04:37:18;;;;;;;0.10;0.10;;;;;;;12.02;66.94;101964.06;5087758;28;20511;-79
2024/03/20 04:39:44;;;;;;;0.10;0.10;;;;;;;12.03;67.33;101968.50;5078963;28;20039;-79
2024/03/20 04:42:12;;;;;;;0.10;0.10;;;;;;;12.07;67.28;101962.25;5089491;28;20028;-80
2024/03/20 04:44:39;;;;;;;0.00;0.00;;;;;;;12.08;67.13;101964.00;5080220;28;20052;-78
2024/03/20 04:47:06;;;;;;;0.10;0.10;;;;;;;12.08;67.13;101953.38;5084139;28;20024;-79
2024/03/20 04:49:32;;;;;;;0.10;0.10;;;;;;;12.10;67.30;101964.88;5081797;28;20020;-78
2024/03/20 04:51:58;;;;;;;0.10;0.10;;;;;;;12.11;67.60;101969.28;5082434;28;20506;-80
2024/03/20 04:54:24;;;;;;;0.20;0.20;;;;;;;12.12;67.01;101963.09;5082010;28;20098;-79
2024/03/20 04:56:51;;;;;;;0.10;0.10;;;;;;;12.11;67.12;101972.84;5088255;28;20021;-80
2024/03/20 04:59:17;;;;;;;0.00;0.00;;;;;;;12.11;67.63;101963.97;5078714;28;20035;-79
2024/03/20 05:01:44;;;;;;;1.65;1.55;;;;;;;12.08;67.31;101964.88;5078614;28;20025;-80
2024/03/20 05:04:11;;;;;;;0.10;0.10;;;;;;;12.09;67.30;101965.78;5081399;28;20047;-79
2024/03/20 05:06:37;;;;;;;0.28;0.28;;;;;;;12.09;66.81;101969.31;5102905;28;20036;-78
2024/03/20 05:09:04;;;;;;;0.10;0.10;;;;;;;12.09;67.02;101961.34;5081903;28;20028;-78
2024/03/20 05:11:31;;;;;;;0.10;0.10;;;;;;;12.09;67.38;101971.09;5092820;28;20023;-78
2024/03/20 05:13:58;;;;;;;0.10;0.10;;;;;;;12.09;67.15;101966.66;5086656;28;20020;-78
2024/03/20 05:16:24;;;;;;;0.10;0.10;;;;;;;12.09;67.44;101965.78;5081695;28;20475;-78
2024/03/20 05:18:50;;;;;;;0.00;0.00;;;;;;;12.09;67.36;101960.47;5086071;28;20106;-79
2024/03/20 05:21:16;;;;;;;0.10;0.10;;;;;;;12.07;66.41;101967.56;5092994;28;20024;-77
2024/03/20 05:23:42;;;;;;;0.10;0.10;;;;;;;12.05;67.04;101969.34;5084682;28;20105;-78
2024/03/20 05:26:08;;;;;;;0.10;0.10;;;;;;;12.04;67.25;101967.59;5094003;28;20494;-81
2024/03/20 05:28:35;;;;;;;0.10;0.10;;;;;;;12.03;67.23;101966.69;5095885;28;20028;-80
2024/03/20 05:31:01;;;;;;;0.40;0.40;;;;;;;12.02;67.38;101966.72;5081389;28;20035;-80
2024/03/20 05:33:27;;;;;;;0.20;0.20;;;;;;;12.00;66.97;101964.09;5081020;28;20107;-80
2024/03/20 05:35:53;;;;;;;0.47;0.32;;;;;;;12.00;66.88;101961.44;5089721;28;20073;-79
2024/03/20 05:38:19;;;;;;;0.47;0.47;;;;;;;11.97;67.40;101965.00;5083180;28;20032;-79
2024/03/20 05:40:46;;;;;;;0.30;0.30;;;;;;;11.97;66.97;101975.63;5086857;28;20043;-79
2024/03/20 05:43:12;;;;;;;0.10;0.10;;;;;;;11.96;67.10;101975.59;5081169;28;20099;-80
2024/03/20 05:45:38;;;;;;;0.20;0.20;;;;;;;11.95;66.89;101974.69;5085492;28;20024;-80
2024/03/20 05:48:05;;;;;;;0.10;0.10;;;;;;;11.96;67.23;101971.19;5079987;28;20036;-80
2024/03/20 05:50:32;;;;;;;0.10;0.10;;;;;;;11.97;66.71;101972.06;5080489;28;20032;-80
2024/03/20 05:52:58;;;;;;;0.65;0.65;;;;;;;11.95;67.37;101980.00;5092228;28;20032;-79
2024/03/20 05:55:25;;;;;;;0.10;0.10;;;;;;;11.95;67.20;101968.50;5078349;28;20028;-80
2024/03/20 05:57:51;;;;;;;0.10;0.10;;;;;;;11.95;67.27;101980.00;5090219;28;20043;-79
2024/03/20 06:00:19;;;;;;;0.00;0.00;;;;;;;11.96;67.22;101976.50;5083343;28;20032;-80
2024/03/20 06:02:47;;;;;;;0.10;0.10;;;;;;;11.92;67.25;101966.75;5081630;28;20021;-80
2024/03/20 06:05:16;;;;;;;0.10;0.10;;;;;;;11.91;67.46;101972.97;5076948;28;20021;-81
2024/03/20 06:07:42;;;;;;;0.30;0.30;;;;;;;11.90;66.83;101978.28;5096094;28;20118;-80
2024/03/20 06:10:09;;;;;;;0.20;0.20;;;;;;;11.89;67.35;101974.75;5094152;28;20062;-79
2024/03/20 06:12:36;;;;;;;0.10;0.10;;;;;;;11.89;67.47;101984.50;5088236;28;20035;-80
2024/03/20 06:15:03;;;;;;;0.10;0.10;;;;;;;11.87;67.54;101987.16;5111337;28;20050;-80
2024/03/20 06:17:29;;;;;;;0.73;0.57;;;;;;;11.87;67.38;101987.16;5117601;28;20030;-80
2024/03/20 06:19:56;;;;;;;0.10;0.10;;;;;;;11.87;67.60;101987.16;5107033;28;20024;-80
2024/03/20 06:22:24;;;;;;;0.52;0.52;;;;;;;11.87;67.24;101987.16;5083011;28;20031;-80
2024/03/20 06:24:50;;;;;;;0.10;0.10;;;;;;;11.88;67.39;101993.34;5100700;28;20482;-80
2024/03/20 06:27:17;;;;;;;0.10;0.10;;;;;;;11.88;68.08;101998.66;5105698;28;20016;-81
2024/03/20 06:29:45;;;;;;;0.10;0.10;;;;;;;11.88;67.80;102002.19;5097922;28;20024;-80
2024/03/20 06:32:11;;;;;;;0.15;0.15;;;;;;;11.88;67.69;101998.66;5097339;28;20398;-80
2024/03/20 06:34:37;;;;;;;0.10;0.10;;;;;;;11.89;67.54;102006.63;5092656;28;20154;-81
2024/03/20 06:37:08;;;;;;;0.98;0.98;;;;;;;11.90;67.90;102008.38;5089219;28;20223;-79
2024/03/20 06:39:34;;;;;;;0.10;0.10;;;;;;;11.92;67.91;102011.88;5088135;28;20487;-80
2024/03/20 06:42:00;;;;;;;0.15;0.15;;;;;;;11.96;67.78;102008.38;5093990;28;20028;-80
2024/03/20 06:44:27;;;;;;;0.10;0.10;;;;;;;12.00;68.08;102008.34;5096272;28;20067;-80
2024/03/20 06:46:53;;;;;;;0.10;0.10;;;;;;;12.04;68.09;102005.66;5091973;28;20081;-79
2024/03/20 06:49:25;;;;;;;0.10;0.10;;;;;;;12.08;67.88;102012.69;5091565;28;20483;-79
2024/03/20 06:51:52;;;;;;;0.10;0.10;;;;;;;12.14;68.32;102002.03;5090192;28;20031;-79
2024/03/20 06:54:19;;;;;;;0.10;0.10;;;;;;;12.21;67.95;102008.19;5090483;28;20028;-79
2024/03/20 06:56:48;;;;;;;0.68;0.68;;;;;;;12.23;68.66;102009.03;5084592;28;20065;-80
2024/03/20 06:59:16;;;;;;;0.10;0.10;;;;;;;12.30;68.43;102008.09;5088000;28;20028;-79
2024/03/20 07:01:42;;;;;;;0.10;0.10;;;;;;;12.38;68.10;102009.81;5090498;28;20039;-79
2024/03/20 07:04:08;;;;;;;0.20;0.20;;;;;;;12.46;68.13;102006.19;5088038;28;20020;-79
2024/03/20 07:06:34;;;;;;;0.20;0.20;;;;;;;12.55;68.28;102009.69;5085009;28;20559;-79
2024/03/20 07:09:01;;;;;;;0.10;0.10;;;;;;;12.62;67.74;102012.25;5086271;28;20028;-78
2024/03/20 07:11:27;;;;;;;0.08;0.08;;;;;;;12.70;67.61;102016.63;5084690;28;20051;-79
2024/03/20 07:13:55;;;;;;;0.10;0.10;;;;;;;12.77;67.75;102018.28;5086284;28;20595;-79
2024/03/20 07:16:22;;;;;;;0.57;0.57;;;;;;;12.83;67.88;102014.69;5090560;28;20024;-79
2024/03/20 07:18:48;;;;;;;0.10;0.10;;;;;;;12.86;67.73;102007.56;5091110;28;20453;-80
2024/03/20 07:21:14;;;;;;;0.10;0.10;;;;;;;12.93;67.31;102008.38;5080782;28;20032;-79
2024/03/20 07:23:40;;;;;;;0.17;0.17;;;;;;;12.99;67.12;102018.09;5072916;28;20032;-79
2024/03/20 07:26:06;;;;;;;0.10;0.10;;;;;;;13.07;67.18;102021.50;5075065;28;20098;-80
2024/03/20 07:28:33;;;;;;;0.00;0.00;;;;;;;13.10;67.22;102026.81;5071996;28;20044;-79
2024/03/20 07:30:59;;;;;;;0.13;0.13;;;;;;;13.14;66.91;102025.00;5072645;28;20029;-80
2024/03/20 07:33:25;;;;;;;0.45;0.28;;;;;;;13.17;66.83;102024.97;5076190;28;20396;-80
2024/03/20 07:35:52;;;;;;;0.70;0.70;;;;;;;13.20;66.44;102028.47;5085111;28;20040;-77
2024/03/20 07:38:18;;;;;;;0.10;0.10;;;;;;;13.26;66.57;102025.72;5080235;28;20028;-79
2024/03/20 07:40:50;;;;;;;0.10;0.10;;;;;;;13.36;66.78;102025.63;5078377;28;20036;-78
2024/03/20 07:43:16;;;;;;;0.38;0.38;;;;;;;13.46;66.50;102023.75;5085054;28;20028;-79
2024/03/20 07:45:42;;;;;;;0.10;0.10;;;;;;;13.56;66.65;102023.59;5083021;28;20087;-77
2024/03/20 07:48:08;;;;;;;0.10;0.10;;;;;;;13.66;66.66;102018.16;5080933;28;20055;-78
2024/03/20 07:50:35;;;;;;;0.10;0.10;;;;;;;13.82;66.17;102019.69;5080207;28;20028;-79
2024/03/20 07:53:01;;;;;;;0.20;0.20;;;;;;;13.95;66.07;102030.19;5086114;28;20028;-79
2024/03/20 07:55:27;;;;;;;0.10;0.10;;;;;;;14.03;65.64;102026.50;5083875;28;20036;-79
2024/03/20 07:57:54;;;;;;;0.10;0.10;;;;;;;14.13;65.24;102026.34;5088991;28;20082;-79
2024/03/20 08:00:28;;;;;;;0.08;0.08;;;;;;;14.18;65.35;102036.03;5089755;28;20070;-78
2024/03/20 08:02:55;;;;;;;0.10;0.10;;;;;;;14.28;65.07;102031.44;5079713;28;20029;-78
2024/03/20 08:05:23;;;;;;;0.10;0.10;;;;;;;14.32;64.95;102026.94;5082075;28;20051;-78
2024/03/20 08:07:49;;;;;;;0.20;0.20;;;;;;;14.37;64.79;102017.94;5085876;28;20024;-78
2024/03/20 08:10:15;;;;;;;0.10;0.10;;;;;;;14.47;64.75;102032.00;5091260;28;20043;-77
2024/03/20 08:12:42;;;;;;;0.10;0.10;;;;;;;14.56;64.32;102031.81;5088961;28;20039;-78
2024/03/20 08:15:09;;;;;;;0.10;0.10;;;;;;;14.65;64.07;102027.28;5089584;28;20024;-77
2024/03/20 08:17:36;;;;;;;0.10;0.10;;;;;;;14.75;63.86;102031.53;5088083;28;20538;-78
2024/03/20 08:20:03;;;;;;;0.10;0.10;;;;;;;14.86;63.49;102034.84;5086436;28;20024;-78
2024/03/20 08:22:30;;;;;;;0.10;0.10;;;;;;;14.98;63.67;102035.56;5087695;28;20031;-78
2024/03/20 08:24:56;;;;;;;0.10;0.10;;;;;;;15.10;63.66;102027.28;5088645;28;20036;-79
2024/03/20 08:27:26;;;;;;;0.10;0.10;;;;;;;15.25;63.29;102033.25;5086696;28;20029;-79
2024/03/20 08:29:54;;;;;;;0.20;0.20;;;;;;;15.39;63.26;102032.94;5089214;28;20395;-81
2024/03/20 08:32:21;;;;;;;0.68;0.68;;;;;;;15.50;62.59;102028.25;5091226;28;20028;-80
2024/03/20 08:34:47;;;;;;;0.45;0.45;;;;;;;15.58;62.31;102028.97;5087797;28;20048;-79
2024/03/20 08:37:14;;;;;;;0.40;0.40;;;;;;;15.64;61.16;102025.31;5088641;28;20545;-80
2024/03/20 08:39:41;;;;;;;0.80;0.80;;;;;;;15.76;61.36;102034.81;5086371;28;20024;-78
2024/03/20 08:42:07;;;;;;;0.20;0.20;;;;;;;15.84;61.20;102031.09;5094623;28;20028;-79
2024/03/20 08:44:33;;;;;;;0.10;0.10;;;;;;;15.94;61.03;102021.06;5097573;28;20028;-78
2024/03/20 08:47:00;;;;;;;0.57;0.57;;;;;;;16.05;60.88;102027.94;5099655;28;20072;-78
2024/03/20 08:49:26;;;;;;;0.10;0.10;;;;;;;16.12;60.38;102029.56;5097117;28;20043;-80
2024/03/20 08:51:53;;;;;;;1.33;1.25;;;;;;;16.17;60.60;102033.88;5102078;28;20024;-80
2024/03/20 08:54:20;;;;;;;0.82;0.82;;;;;;;16.27;60.59;102033.66;5105772;28;20530;-78
2024/03/20 08:56:47;;;;;;;0.10;0.10;;;;;;;16.33;60.84;102042.38;5102399;28;20039;-80
2024/03/20 08:59:14;;;;;;;0.13;0.13;;;;;;;16.43;60.96;102045.72;5102428;28;20050;-79
2024/03/20 09:01:40;;;;;;;0.10;0.10;;;;;;;16.46;59.76;102034.06;5103060;28;20019;-78
2024/03/20 09:04:06;;;;;;;0.20;0.20;;;;;;;16.56;59.12;102040.03;5096223;28;20028;-80
2024/03/20 09:06:32;;;;;;;0.52;0.52;;;;;;;16.64;57.69;102038.06;5094971;28;20141;-80
2024/03/20 09:08:58;;;;;;;0.10;0.10;;;;;;;16.77;58.49;102034.16;5094086;28;20028;-79
2024/03/20 09:11:25;;;;;;;1.00;0.75;;;;;;;16.88;58.07;102035.66;5094105;28;20062;-79
2024/03/20 09:13:51;;;;;;;1.33;1.23;;;;;;;16.99;58.93;102038.94;5095991;28;20016;-80
2024/03/20 09:16:17;;;;;;;0.88;0.57;;;;;;;17.09;58.80;102040.41;5095621;28;20470;-78
2024/03/20 09:18:44;;;;;;;0.20;0.20;;;;;;;17.19;57.91;102035.69;5094305;28;20024;-79
2024/03/20 09:21:10;;;;;;;0.40;0.38;;;;;;;17.30;58.50;102027.34;5092982;28;20106;-80
2024/03/20 09:23:37;;;;;;;0.13;0.13;;;;;;;17.40;54.00;102025.28;5095751;28;20059;-79
2024/03/20 09:26:04;;;;;;;0.10;0.10;;;;;;;17.55;55.38;102034.66;5087106;28;20031;-81
2024/03/20 09:28:30;;;;;;;1.67;1.58;;;;;;;17.68;56.30;102027.97;5097775;28;20472;-80
2024/03/20 09:30:59;;;;;;;0.10;0.10;;;;;;;17.79;56.13;102033.00;5089075;28;20077;-80
2024/03/20 09:33:32;;;;;;;0.08;0.08;;;;;;;17.86;54.74;102033.72;5095930;28;20084;-80
2024/03/20 09:35:59;;;;;;;0.30;0.30;;;;;;;17.87;54.02;102033.66;5092238;28;20028;-79
2024/03/20 09:38:25;;;;;;;0.10;0.10;;;;;;;17.94;55.61;102031.69;5088148;28;20036;-79
2024/03/20 09:40:51;;;;;;;2.50;2.30;;;;;;;17.98;54.12;102032.47;5090552;28;20060;-79
2024/03/20 09:43:18;;;;;;;0.10;0.10;;;;;;;18.04;54.37;102029.56;5091808;28;20077;-79
2024/03/20 09:45:45;;;;;;;0.10;0.10;;;;;;;18.15;54.82;102032.78;5101411;28;20020;-79
2024/03/20 09:48:15;;;;;;;0.13;0.13;;;;;;;18.22;53.42;102028.97;5100022;28;20035;-79
2024/03/20 09:54:05;;;;;;;0.20;0.20;;;;;;;18.48;54.00;102026.34;5094329;28;20100;-78
2024/03/20 09:56:32;;;;;;;0.10;0.10;;;;;;;18.49;52.91;102020.03;5105554;28;20078;-79
2024/03/20 09:58:58;;;;;;;0.40;0.40;;;;;;;18.44;51.57;102017.50;5105311;28;20028;-79
2024/03/20 10:01:25;;;;;;;0.08;0.08;;;;;;;18.46;53.24;102012.97;5101818;28;20025;-78
2024/03/20 10:03:54;;;;;;;0.10;0.10;;;;;;;18.46;53.44;102012.13;5096768;28;20453;-79
2024/03/20 10:06:22;;;;;;;0.30;0.30;;;;;;;18.45;53.36;102011.22;5094327;28;20107;-79
2024/03/20 10:08:49;;;;;;;0.63;0.63;;;;;;;18.49;52.42;102012.00;5093544;28;20458;-79
2024/03/20 10:11:16;;;;;;;1.00;0.95;;;;;;;18.52;51.75;102004.72;5098079;28;20028;-79
2024/03/20 10:13:43;;;;;;;0.10;0.10;;;;;;;18.61;53.38;102013.38;5095466;28;20032;-80
2024/03/20 10:16:14;;;;;;;0.15;0.15;;;;;;;18.64;52.80;102010.56;5095739;28;20020;-80
2024/03/20 10:18:44;;;;;;;2.00;1.17;;;;;;;18.64;50.64;102019.53;5091006;28;20024;-81
2024/03/20 10:21:11;;;;;;;0.85;0.85;;;;;;;18.65;51.61;102013.19;5084326;28;20394;-79
2024/03/20 10:23:40;;;;;;;0.35;0.35;;;;;;;18.66;51.48;102012.28;5086041;28;20036;-79
2024/03/20 10:26:09;;;;;;;0.20;0.20;;;;;;;18.71;52.00;102012.13;5096583;28;20039;-80
2024/03/20 10:28:38;;;;;;;0.10;0.10;;;;;;;18.75;52.16;102009.28;5079430;28;20081;-83
2024/03/20 10:31:07;;;;;;;1.15;1.13;;;;;;;18.75;50.89;102011.97;5083781;28;20108;-79
2024/03/20 10:33:35;;;;;;;0.68;0.68;;;;;;;18.86;51.95;102014.25;5088996;28;20024;-78
2024/03/20 10:36:02;;;;;;;1.27;0.77;;;;;;;18.93;51.05;102009.56;5092273;28;20024;-79
2024/03/20 10:38:29;;;;;;;0.10;0.10;;;;;;;18.95;50.16;102006.81;5084335;28;20040;-78
2024/03/20 10:40:57;;;;;;;0.17;0.17;;;;;;;19.00;50.28;102008.38;5091014;28;20045;-78
2024/03/20 10:43:26;;;;;;;0.10;0.10;;;;;;;19.09;51.19;102012.56;5082698;28;20101;-78
2024/03/20 10:45:53;;;;;;;0.10;0.10;;;;;;;19.16;51.26;102010.53;5082062;28;20036;-77
2024/03/20 10:48:22;;;;;;;1.42;1.33;;;;;;;19.21;51.72;102003.16;5088577;28;20031;-77
2024/03/20 10:50:50;;;;;;;0.82;0.82;;;;;;;19.28;51.25;102006.47;5067152;28;20035;-77
2024/03/20 10:53:18;;;;;;;0.10;0.10;;;;;;;19.33;50.32;102000.00;5090155;28;20032;-79
2024/03/20 10:55:47;;;;;;;0.47;0.47;;;;;;;19.44;51.15;102009.47;5091922;28;20062;-76
2024/03/20 10:58:16;;;;;;;1.00;1.00;;;;;;;19.54;50.70;102006.38;5087248;28;20032;-78
2024/03/20 11:00:45;;;;;;;0.25;0.25;;;;;;;19.66;51.35;101999.59;5074521;28;20054;-78
2024/03/20 11:03:50;;;;;;;0.10;0.10;;;;;;;19.73;49.45;101995.75;5085027;28;20043;-79
2024/03/20 11:06:39;;;;;;;0.10;0.10;;;;;;;19.82;49.12;102007.94;5083387;28;20488;-80
2024/03/20 11:11:45;;;;;;;0.10;0.10;;;;;;;20.02;49.70;102004.47;5109733;27;20400;-77
2024/03/20 11:14:12;;;;;;;0.32;0.32;;;;;;;20.07;47.79;101998.03;5110680;28;20560;-78
2024/03/20 11:16:40;;;;;;;0.95;0.95;;;;;;;20.18;48.51;101995.78;5113122;28;20028;-80
2024/03/20 11:19:11;;;;;;;0.55;0.55;;;;;;;20.24;47.65;101995.50;5113855;28;20618;-79
2024/03/20 11:21:37;;;;;;;0.10;0.10;;;;;;;20.32;47.84;101993.34;5094433;28;20024;-79
2024/03/20 11:24:05;;;;;;;0.28;0.28;;;;;;;20.40;48.60;101995.72;5094456;28;20020;-79
2024/03/20 11:26:33;;;;;;;1.10;0.95;;;;;;;20.51;49.94;101989.84;5094797;28;20395;-79
2024/03/20 11:29:00;;;;;;;2.92;1.85;;;;;;;20.52;48.43;101995.19;5093260;28;20483;-79